Accueil
METAR-TAF:

METAR-TAF

Aéroports :

Londres-Gatwick, Angleterre

Aéroport de Londres-Gatwick

latitude: 51-09N, longitude: 000-11W, altitude: 62 m

Observation

Le bulletin a été fait il y a 16 minutes, à 00:20 UTC
Vent 4 kt de nord-est
Température -2°C
Humidité 80%
Pression 1019 hPa
Visibilité 10 km ou plus
pas de nuages en-dessous de 1500 mètres et pas de cumulonimbus.

METAR: EGKK 240020Z 05004KT CAVOK M02/M05 Q1019

Heure: 00:36 (00:36 UTC)

Prévision

Le bulletin a été fait il y a 1 heure et 41 minutes, à 22:55 UTC
Prévision valable du 24 à 00 UTC au 25 à 06 UTC
Vent 12 kt de est
Visibilité 10 km ou plus
Nuages épars à une hauteur de 3000 ft
Temporairement
du 24 à 00 UTC au 24 à 10 UTC
Visibilité: 8000 m
Probabilité 30% :
Temporairement
du 24 à 12 UTC au 24 à 21 UTC
Vent 15 kt de est avec des rafales jusqu'à 25 kt

TAF: EGKK 232255Z 2400/2506 08012KT 9999 SCT030 TEMPO 2400/2410 8000 PROB30 TEMPO 2412/2421 09015G25KT

Observations et prévisions météorologiques de plus de 4000 aéroports (messages METAR et TAF).

Les stations disponibles sont représentées par des disques jaunes et rouges sur la carte.

Passer la souris dessus pour voir le nom de la station.

Cliquer dessus pour voir les observations et prévisions météorologiques.

Pour changer de carte: cliquez sur les boutons verts avec une croix noire pour zoomer, sur le bouton vert avec un tiret pour effectuer un zoom arrière, ou sur les flèches vertes pour les cartes adjacentes.


METAR-TAF: